sensor_id;sensor_type;location;lat;lon;timestamp;pressure;altitude;pressure_sealevel;temperature;humidity
50394;BME280;36308;46.312;25.288;2023-03-14T00:01:16;96066.09;;;-0.07;54.97
50394;BME280;36308;46.312;25.288;2023-03-14T00:03:42;96062.81;;;-0.09;55.25
50394;BME280;36308;46.312;25.288;2023-03-14T00:06:09;96054.28;;;-0.11;54.88
50394;BME280;36308;46.312;25.288;2023-03-14T00:08:36;96055.47;;;-0.13;54.97
50394;BME280;36308;46.312;25.288;2023-03-14T00:11:06;96046.13;;;-0.16;54.87
50394;BME280;36308;46.312;25.288;2023-03-14T00:13:32;96033.88;;;-0.17;55.51
50394;BME280;36308;46.312;25.288;2023-03-14T00:16:06;96038.56;;;-0.19;55.14
50394;BME280;36308;46.312;25.288;2023-03-14T00:18:32;96024.72;;;-0.21;55.26
50394;BME280;36308;46.312;25.288;2023-03-14T00:20:59;96024.06;;;-0.23;55.55
50394;BME280;36308;46.312;25.288;2023-03-14T00:23:25;96025.91;;;-0.24;55.26
50394;BME280;36308;46.312;25.288;2023-03-14T00:25:51;96013.91;;;-0.26;55.78
50394;BME280;36308;46.312;25.288;2023-03-14T00:28:17;96016.72;;;-0.28;55.21
50394;BME280;36308;46.312;25.288;2023-03-14T00:30:42;96017.94;;;-0.30;55.55
50394;BME280;36308;46.312;25.288;2023-03-14T00:33:08;96011.00;;;-0.31;55.93
50394;BME280;36308;46.312;25.288;2023-03-14T00:35:33;96014.84;;;-0.34;55.51
50394;BME280;36308;46.312;25.288;2023-03-14T00:37:59;96008.94;;;-0.36;55.75
50394;BME280;36308;46.312;25.288;2023-03-14T00:40:24;96009.13;;;-0.37;55.57
50394;BME280;36308;46.312;25.288;2023-03-14T00:42:51;96009.31;;;-0.39;56.00
50394;BME280;36308;46.312;25.288;2023-03-14T00:45:16;96006.06;;;-0.41;55.95
50394;BME280;36308;46.312;25.288;2023-03-14T00:47:42;96007.84;;;-0.42;56.13
50394;BME280;36308;46.312;25.288;2023-03-14T00:50:11;96007.22;;;-0.44;56.26
50394;BME280;36308;46.312;25.288;2023-03-14T00:52:36;96014.56;;;-0.46;56.41
50394;BME280;36308;46.312;25.288;2023-03-14T00:55:02;96008.66;;;-0.48;56.18
50394;BME280;36308;46.312;25.288;2023-03-14T00:57:28;96005.16;;;-0.48;56.54
50394;BME280;36308;46.312;25.288;2023-03-14T00:59:53;95999.88;;;-0.48;56.43
50394;BME280;36308;46.312;25.288;2023-03-14T01:02:19;95997.44;;;-0.50;56.83
50394;BME280;36308;46.312;25.288;2023-03-14T01:04:47;95985.25;;;-0.51;56.56
50394;BME280;36308;46.312;25.288;2023-03-14T01:07:13;95985.25;;;-0.51;56.69
50394;BME280;36308;46.312;25.288;2023-03-14T01:09:38;95978.34;;;-0.52;56.63
50394;BME280;36308;46.312;25.288;2023-03-14T01:12:04;95983.63;;;-0.52;56.62
50394;BME280;36308;46.312;25.288;2023-03-14T01:14:29;95975.88;;;-0.53;56.56
50394;BME280;36308;46.312;25.288;2023-03-14T01:16:55;95973.41;;;-0.55;56.53
50394;BME280;36308;46.312;25.288;2023-03-14T01:19:26;95964.88;;;-0.57;56.49
50394;BME280;36308;46.312;25.288;2023-03-14T01:21:52;95967.69;;;-0.58;56.83
50394;BME280;36308;46.312;25.288;2023-03-14T01:24:18;95966.88;;;-0.59;56.72
50394;BME280;36308;46.312;25.288;2023-03-14T01:26:43;95960.16;;;-0.62;57.00
50394;BME280;36308;46.312;25.288;2023-03-14T01:29:09;95970.91;;;-0.63;56.81
50394;BME280;36308;46.312;25.288;2023-03-14T01:31:34;95961.38;;;-0.64;56.85
50394;BME280;36308;46.312;25.288;2023-03-14T01:33:59;95954.59;;;-0.67;57.26
50394;BME280;36308;46.312;25.288;2023-03-14T01:36:25;95960.72;;;-0.66;57.27
50394;BME280;36308;46.312;25.288;2023-03-14T01:38:51;95958.28;;;-0.68;57.04
50394;BME280;36308;46.312;25.288;2023-03-14T01:41:24;95946.06;;;-0.69;57.33
50394;BME280;36308;46.312;25.288;2023-03-14T01:43:50;95947.91;;;-0.69;57.67
50394;BME280;36308;46.312;25.288;2023-03-14T01:48:52;95954.19;;;-0.70;57.74
50394;BME280;36308;46.312;25.288;2023-03-14T01:54:11;95945.66;;;-0.72;57.34
50394;BME280;36308;46.312;25.288;2023-03-14T01:56:40;95937.09;;;-0.74;57.54
50394;BME280;36308;46.312;25.288;2023-03-14T01:59:08;95948.66;;;-0.75;57.36
50394;BME280;36308;46.312;25.288;2023-03-14T02:01:34;95943.53;;;-0.77;57.83
50394;BME280;36308;46.312;25.288;2023-03-14T02:04:02;95930.56;;;-0.78;57.70
50394;BME280;36308;46.312;25.288;2023-03-14T02:06:35;95926.44;;;-0.81;57.68
50394;BME280;36308;46.312;25.288;2023-03-14T02:09:04;95922.81;;;-0.80;58.00
50394;BME280;36308;46.312;25.288;2023-03-14T02:11:29;95930.13;;;-0.82;57.87
50394;BME280;36308;46.312;25.288;2023-03-14T02:13:57;95924.84;;;-0.82;58.05
50394;BME280;36308;46.312;25.288;2023-03-14T02:16:24;95917.72;;;-0.82;58.01
50394;BME280;36308;46.312;25.288;2023-03-14T02:18:50;95918.75;;;-0.83;58.16
50394;BME280;36308;46.312;25.288;2023-03-14T02:21:25;95915.47;;;-0.85;58.05
50394;BME280;36308;46.312;25.288;2023-03-14T02:24:19;95910.19;;;-0.85;58.20
50394;BME280;36308;46.312;25.288;2023-03-14T02:27:13;95911.19;;;-0.86;58.16
50394;BME280;36308;46.312;25.288;2023-03-14T02:30:08;95905.28;;;-0.88;58.30
50394;BME280;36308;46.312;25.288;2023-03-14T02:32:37;95912.22;;;-0.87;58.22
50394;BME280;36308;46.312;25.288;2023-03-14T02:35:08;95905.28;;;-0.88;58.26
50394;BME280;36308;46.312;25.288;2023-03-14T02:37:41;95900.00;;;-0.88;58.42
50394;BME280;36308;46.312;25.288;2023-03-14T02:40:09;95893.09;;;-0.89;58.38
50394;BME280;36308;46.312;25.288;2023-03-14T02:42:35;95892.28;;;-0.89;58.57
50394;BME280;36308;46.312;25.288;2023-03-14T02:47:30;95885.19;;;-0.89;58.83
50394;BME280;36308;46.312;25.288;2023-03-14T02:50:10;95893.28;;;-0.90;58.82
50394;BME280;36308;46.312;25.288;2023-03-14T02:52:38;95894.09;;;-0.90;58.63
50394;BME280;36308;46.312;25.288;2023-03-14T02:55:04;95889.66;;;-0.89;58.78
50394;BME280;36308;46.312;25.288;2023-03-14T02:57:29;95886.19;;;-0.90;58.78
50394;BME280;36308;46.312;25.288;2023-03-14T02:59:58;95888.81;;;-0.90;59.06
50394;BME280;36308;46.312;25.288;2023-03-14T03:02:25;95896.72;;;-0.90;59.01
50394;BME280;36308;46.312;25.288;2023-03-14T03:04:50;95892.28;;;-0.89;59.09
50394;BME280;36308;46.312;25.288;2023-03-14T03:07:16;95892.28;;;-0.89;59.22
50394;BME280;36308;46.312;25.288;2023-03-14T03:09:41;95892.28;;;-0.89;59.13
50394;BME280;36308;46.312;25.288;2023-03-14T03:12:07;95892.28;;;-0.89;59.09
50394;BME280;36308;46.312;25.288;2023-03-14T03:14:32;95894.09;;;-0.90;59.15
50394;BME280;36308;46.312;25.288;2023-03-14T03:16:58;95888.81;;;-0.90;59.41
50394;BME280;36308;46.312;25.288;2023-03-14T03:19:23;95888.63;;;-0.88;59.13
50394;BME280;36308;46.312;25.288;2023-03-14T03:21:49;95886.81;;;-0.88;59.35
50394;BME280;36308;46.312;25.288;2023-03-14T03:24:14;95885.81;;;-0.87;59.56
50394;BME280;36308;46.312;25.288;2023-03-14T03:26:40;95868.66;;;-0.97;59.34
50394;BME280;36308;46.312;25.288;2023-03-14T03:29:05;95876.88;;;-0.86;59.59
50394;BME280;36308;46.312;25.288;2023-03-14T03:31:31;95876.88;;;-0.86;59.41
50394;BME280;36308;46.312;25.288;2023-03-14T03:33:57;95883.81;;;-0.85;59.43
50394;BME280;36308;46.312;25.288;2023-03-14T03:36:24;95889.09;;;-0.85;59.62
50394;BME280;36308;46.312;25.288;2023-03-14T03:38:50;95890.69;;;-0.84;59.61
50394;BME280;36308;46.312;25.288;2023-03-14T03:41:15;95887.06;;;-0.83;59.68
50394;BME280;36308;46.312;25.288;2023-03-14T03:43:41;95885.41;;;-0.84;59.96
50394;BME280;36308;46.312;25.288;2023-03-14T03:46:07;95886.03;;;-0.82;59.77
50394;BME280;36308;46.312;25.288;2023-03-14T03:48:34;95879.78;;;-0.80;59.88
50394;BME280;36308;46.312;25.288;2023-03-14T03:50:59;95873.47;;;-0.79;59.87
50394;BME280;36308;46.312;25.288;2023-03-14T03:53:25;95877.75;;;-0.78;59.95
50394;BME280;36308;46.312;25.288;2023-03-14T03:55:50;95879.38;;;-0.77;60.14
50394;BME280;36308;46.312;25.288;2023-03-14T03:58:16;95881.03;;;-0.76;60.35
50394;BME280;36308;46.312;25.288;2023-03-14T04:00:41;95881.03;;;-0.76;60.26
50394;BME280;36308;46.312;25.288;2023-03-14T04:03:07;95877.38;;;-0.75;60.29
50394;BME280;36308;46.312;25.288;2023-03-14T04:05:33;95872.72;;;-0.73;60.01
50394;BME280;36308;46.312;25.288;2023-03-14T04:08:00;95865.59;;;-0.73;60.18
50394;BME280;36308;46.312;25.288;2023-03-14T04:10:25;95870.88;;;-0.73;60.12
50394;BME280;36308;46.312;25.288;2023-03-14T04:12:51;95881.25;;;-0.71;60.28
50394;BME280;36308;46.312;25.288;2023-03-14T04:15:17;95868.06;;;-0.71;60.22
50394;BME280;36308;46.312;25.288;2023-03-14T04:17:43;95860.78;;;-0.69;60.01
50394;BME280;36308;46.312;25.288;2023-03-14T04:20:09;95859.56;;;-0.67;60.23
50394;BME280;36308;46.312;25.288;2023-03-14T04:22:36;95859.56;;;-0.67;60.21
50394;BME280;36308;46.312;25.288;2023-03-14T04:25:02;95858.38;;;-0.64;60.74
50394;BME280;36308;46.312;25.288;2023-03-14T04:27:29;95854.72;;;-0.63;60.55
50394;BME280;36308;46.312;25.288;2023-03-14T04:29:54;95855.34;;;-0.61;60.42
50394;BME280;36308;46.312;25.288;2023-03-14T04:32:20;95850.69;;;-0.59;60.47
50394;BME280;36308;46.312;25.288;2023-03-14T04:34:45;95861.25;;;-0.59;60.72
50394;BME280;36308;46.312;25.288;2023-03-14T04:37:11;95855.97;;;-0.59;60.66
50394;BME280;36308;46.312;25.288;2023-03-14T04:39:36;95854.75;;;-0.56;60.76
50394;BME280;36308;46.312;25.288;2023-03-14T04:42:02;95857.22;;;-0.55;60.52
50394;BME280;36308;46.312;25.288;2023-03-14T04:44:27;95858.88;;;-0.54;60.68
50394;BME280;36308;46.312;25.288;2023-03-14T04:46:53;95849.91;;;-0.53;60.67
50394;BME280;36308;46.312;25.288;2023-03-14T04:49:18;95847.09;;;-0.51;60.71
50394;BME280;36308;46.312;25.288;2023-03-14T04:51:44;95851.16;;;-0.49;60.89
50394;BME280;36308;46.312;25.288;2023-03-14T04:54:09;95844.91;;;-0.48;60.77
50394;BME280;36308;46.312;25.288;2023-03-14T04:56:35;95842.88;;;-0.46;60.80
50394;BME280;36308;46.312;25.288;2023-03-14T04:59:01;95834.97;;;-0.46;60.98
50394;BME280;36308;46.312;25.288;2023-03-14T05:01:27;95831.28;;;-0.45;60.61
50394;BME280;36308;46.312;25.288;2023-03-14T05:03:52;95834.56;;;-0.43;60.85
50394;BME280;36308;46.312;25.288;2023-03-14T05:06:17;95836.16;;;-0.42;60.59
50394;BME280;36308;46.312;25.288;2023-03-14T05:08:43;95828.06;;;-0.40;60.94
50394;BME280;36308;46.312;25.288;2023-03-14T05:11:10;95821.97;;;-0.41;61.08
50394;BME280;36308;46.312;25.288;2023-03-14T05:13:36;95824.84;;;-0.35;61.22
50394;BME280;36308;46.312;25.288;2023-03-14T05:16:07;95817.53;;;-0.33;61.27
50394;BME280;36308;46.312;25.288;2023-03-14T05:18:32;95815.50;;;-0.31;60.87
50394;BME280;36308;46.312;25.288;2023-03-14T05:20:58;95819.78;;;-0.30;60.95
50394;BME280;36308;46.312;25.288;2023-03-14T05:23:24;95810.66;;;-0.28;61.45
50394;BME280;36308;46.312;25.288;2023-03-14T05:25:49;95819.03;;;-0.24;61.27
50394;BME280;36308;46.312;25.288;2023-03-14T05:28:15;95811.72;;;-0.22;61.33
50394;BME280;36308;46.312;25.288;2023-03-14T05:30:40;95801.78;;;-0.20;61.54
50394;BME280;36308;46.312;25.288;2023-03-14T05:33:06;95809.91;;;-0.15;61.51
50394;BME280;36308;46.312;25.288;2023-03-14T05:35:31;95804.25;;;-0.12;61.88
50394;BME280;36308;46.312;25.288;2023-03-14T05:37:57;95807.09;;;-0.07;61.53
50394;BME280;36308;46.312;25.288;2023-03-14T05:40:22;95806.72;;;-0.04;61.65
50394;BME280;36308;46.312;25.288;2023-03-14T05:42:48;95808.78;;;0.01;61.39
50394;BME280;36308;46.312;25.288;2023-03-14T05:45:14;95797.38;;;0.01;61.83
50394;BME280;36308;46.312;25.288;2023-03-14T05:47:39;95796.59;;;0.07;61.67
50394;BME280;36308;46.312;25.288;2023-03-14T05:50:05;95805.97;;;0.16;61.65
50394;BME280;36308;46.312;25.288;2023-03-14T05:52:31;95801.53;;;0.23;61.46
50394;BME280;36308;46.312;25.288;2023-03-14T05:54:56;95802.78;;;0.27;61.66
50394;BME280;36308;46.312;25.288;2023-03-14T05:57:22;95806.88;;;0.36;61.53
50394;BME280;36308;46.312;25.288;2023-03-14T05:59:47;95797.53;;;0.40;61.46
50394;BME280;36308;46.312;25.288;2023-03-14T06:02:12;95800.97;;;0.48;61.42
50394;BME280;36308;46.312;25.288;2023-03-14T06:04:38;95795.91;;;0.53;60.92
50394;BME280;36308;46.312;25.288;2023-03-14T06:07:03;95800.22;;;0.60;61.50
50394;BME280;36308;46.312;25.288;2023-03-14T06:09:29;95805.31;;;0.69;60.69
50394;BME280;36308;46.312;25.288;2023-03-14T06:11:54;95803.69;;;0.74;60.63
50394;BME280;36308;46.312;25.288;2023-03-14T06:14:20;95792.72;;;0.77;60.64
50394;BME280;36308;46.312;25.288;2023-03-14T06:16:46;95798.63;;;0.86;60.35
50394;BME280;36308;46.312;25.288;2023-03-14T06:19:13;95790.69;;;0.93;60.21
50394;BME280;36308;46.312;25.288;2023-03-14T06:21:38;95789.88;;;0.99;60.52
50394;BME280;36308;46.312;25.288;2023-03-14T06:24:04;95799.25;;;1.08;60.07
50394;BME280;36308;46.312;25.288;2023-03-14T06:26:29;95783.56;;;1.13;59.90
50394;BME280;36308;46.312;25.288;2023-03-14T06:28:55;95778.84;;;1.22;60.13
50394;BME280;36308;46.312;25.288;2023-03-14T06:31:20;95776.84;;;1.31;59.58
50394;BME280;36308;46.312;25.288;2023-03-14T06:33:46;95775.59;;;1.40;59.53
50394;BME280;36308;46.312;25.288;2023-03-14T06:36:12;95780.47;;;1.50;59.86
50394;BME280;36308;46.312;25.288;2023-03-14T06:38:37;95771.47;;;1.57;60.03
50394;BME280;36308;46.312;25.288;2023-03-14T06:41:07;95768.41;;;1.67;59.83
50394;BME280;36308;46.312;25.288;2023-03-14T06:43:33;95775.50;;;1.80;59.48
50394;BME280;36308;46.312;25.288;2023-03-14T06:45:58;95766.91;;;1.91;59.79
50394;BME280;36308;46.312;25.288;2023-03-14T06:48:24;95755.03;;;2.00;59.55
50394;BME280;36308;46.312;25.288;2023-03-14T06:50:49;95756.59;;;2.15;59.02
50394;BME280;36308;46.312;25.288;2023-03-14T06:53:15;95753.88;;;2.28;59.66
50394;BME280;36308;46.312;25.288;2023-03-14T06:55:40;95741.34;;;2.42;58.74
50394;BME280;36308;46.312;25.288;2023-03-14T06:58:06;95749.44;;;2.54;58.79
50394;BME280;36308;46.312;25.288;2023-03-14T07:00:33;95725.72;;;2.59;58.29
50394;BME280;36308;46.312;25.288;2023-03-14T07:02:59;95731.72;;;2.79;58.24
50394;BME280;36308;46.312;25.288;2023-03-14T07:05:25;95731.63;;;2.93;58.40
50394;BME280;36308;46.312;25.288;2023-03-14T07:07:50;95737.63;;;3.07;58.22
50394;BME280;36308;46.312;25.288;2023-03-14T07:10:16;95724.44;;;3.18;58.11
50394;BME280;36308;46.312;25.288;2023-03-14T07:12:42;95736.97;;;3.36;57.64
50394;BME280;36308;46.312;25.288;2023-03-14T07:15:08;95718.00;;;3.51;57.64
50394;BME280;36308;46.312;25.288;2023-03-14T07:17:33;95724.34;;;3.69;57.79
50394;BME280;36308;46.312;25.288;2023-03-14T07:19:59;95717.41;;;3.86;57.18
50394;BME280;36308;46.312;25.288;2023-03-14T07:22:25;95701.88;;;4.01;57.32
50394;BME280;36308;46.312;25.288;2023-03-14T07:24:50;95708.91;;;4.26;57.18
50394;BME280;36308;46.312;25.288;2023-03-14T07:27:16;95697.16;;;4.45;57.08
50394;BME280;36308;46.312;25.288;2023-03-14T07:29:41;95700.94;;;4.68;56.76
50394;BME280;36308;46.312;25.288;2023-03-14T07:32:07;95699.78;;;4.88;56.51
50394;BME280;36308;46.312;25.288;2023-03-14T07:34:33;95675.97;;;4.93;56.38
50394;BME280;36308;46.312;25.288;2023-03-14T07:36:59;95691.16;;;5.28;56.35
50394;BME280;36308;46.312;25.288;2023-03-14T07:39:25;95695.53;;;5.57;56.01
50394;BME280;36308;46.312;25.288;2023-03-14T07:41:50;95692.34;;;5.84;55.59
50394;BME280;36308;46.312;25.288;2023-03-14T07:44:16;95683.25;;;6.09;55.38
50394;BME280;36308;46.312;25.288;2023-03-14T07:46:41;95681.28;;;6.33;54.47
50394;BME280;36308;46.312;25.288;2023-03-14T07:49:07;95688.13;;;6.57;54.22
50394;BME280;36308;46.312;25.288;2023-03-14T07:51:32;95682.91;;;6.79;53.87
50394;BME280;36308;46.312;25.288;2023-03-14T07:53:58;95685.41;;;7.03;53.75
50394;BME280;36308;46.312;25.288;2023-03-14T07:56:23;95671.88;;;7.26;52.80
50394;BME280;36308;46.312;25.288;2023-03-14T07:58:49;95670.88;;;7.49;52.40
50394;BME280;36308;46.312;25.288;2023-03-14T08:01:14;95664.94;;;7.69;51.79
50394;BME280;36308;46.312;25.288;2023-03-14T08:03:40;95662.28;;;7.92;51.70
50394;BME280;36308;46.312;25.288;2023-03-14T08:06:06;95658.53;;;8.15;50.80
50394;BME280;36308;46.312;25.288;2023-03-14T08:08:31;95660.34;;;8.36;50.24
50394;BME280;36308;46.312;25.288;2023-03-14T08:11:05;95656.88;;;8.58;49.50
50394;BME280;36308;46.312;25.288;2023-03-14T08:13:33;95648.19;;;8.78;49.04
50394;BME280;36308;46.312;25.288;2023-03-14T08:15:59;95644.06;;;8.97;48.75
50394;BME280;36308;46.312;25.288;2023-03-14T08:18:24;95651.97;;;9.19;47.17
50394;BME280;36308;46.312;25.288;2023-03-14T08:20:50;95644.59;;;9.42;46.37
50394;BME280;36308;46.312;25.288;2023-03-14T08:23:15;95647.16;;;9.64;46.16
50394;BME280;36308;46.312;25.288;2023-03-14T08:25:41;95646.72;;;9.87;45.72
50394;BME280;36308;46.312;25.288;2023-03-14T08:28:06;95631.22;;;10.10;45.18
50394;BME280;36308;46.312;25.288;2023-03-14T08:30:32;95638.56;;;10.35;45.07
50394;BME280;36308;46.312;25.288;2023-03-14T08:32:57;95633.22;;;10.56;45.00
50394;BME280;36308;46.312;25.288;2023-03-14T08:35:24;95625.72;;;10.78;43.81
50394;BME280;36308;46.312;25.288;2023-03-14T08:37:50;95615.50;;;10.96;43.68
50394;BME280;36308;46.312;25.288;2023-03-14T08:40:17;95617.38;;;11.21;43.94
50394;BME280;36308;46.312;25.288;2023-03-14T08:42:43;95606.31;;;11.38;43.03
50394;BME280;36308;46.312;25.288;2023-03-14T08:45:11;95607.31;;;11.62;42.51
50394;BME280;36308;46.312;25.288;2023-03-14T08:47:37;95603.72;;;11.82;41.33
50394;BME280;36308;46.312;25.288;2023-03-14T08:50:04;95599.59;;;12.05;41.02
50394;BME280;36308;46.312;25.288;2023-03-14T08:52:31;95591.72;;;12.24;40.72
50394;BME280;36308;46.312;25.288;2023-03-14T08:54:57;95598.81;;;12.49;40.23
50394;BME280;36308;46.312;25.288;2023-03-14T08:57:23;95572.25;;;12.67;39.42
50394;BME280;36308;46.312;25.288;2023-03-14T08:59:53;95586.03;;;12.94;39.11
50394;BME280;36308;46.312;25.288;2023-03-14T09:02:20;95579.38;;;13.16;39.42
50394;BME280;36308;46.312;25.288;2023-03-14T09:04:46;95582.44;;;13.39;39.36
50394;BME280;36308;46.312;25.288;2023-03-14T09:07:11;95588.94;;;13.62;39.35
50394;BME280;36308;46.312;25.288;2023-03-14T09:09:37;95582.97;;;13.84;39.00
50394;BME280;36308;46.312;25.288;2023-03-14T09:12:02;95564.81;;;14.08;38.39
50394;BME280;36308;46.312;25.288;2023-03-14T09:14:28;95564.50;;;14.34;38.02
50394;BME280;36308;46.312;25.288;2023-03-14T09:16:54;95570.03;;;14.62;37.87
50394;BME280;36308;46.312;25.288;2023-03-14T09:19:20;95553.38;;;14.87;37.73
50394;BME280;36308;46.312;25.288;2023-03-14T09:21:45;95553.75;;;15.13;37.19
50394;BME280;36308;46.312;25.288;2023-03-14T09:24:11;95543.25;;;15.40;37.23
50394;BME280;36308;46.312;25.288;2023-03-14T09:26:36;95540.97;;;15.61;36.37
50394;BME280;36308;46.312;25.288;2023-03-14T09:29:02;95541.56;;;15.85;36.41
50394;BME280;36308;46.312;25.288;2023-03-14T09:31:28;95542.94;;;16.10;36.22
50394;BME280;36308;46.312;25.288;2023-03-14T09:33:54;95539.16;;;16.34;35.40
50394;BME280;36308;46.312;25.288;2023-03-14T09:36:20;95539.97;;;16.57;35.39
50394;BME280;36308;46.312;25.288;2023-03-14T09:38:45;95539.72;;;16.81;35.17
50394;BME280;36308;46.312;25.288;2023-03-14T09:41:25;95528.94;;;16.99;34.39
50394;BME280;36308;46.312;25.288;2023-03-14T09:44:16;95532.59;;;17.25;33.67
50394;BME280;36308;46.312;25.288;2023-03-14T09:46:47;95540.69;;;17.48;33.76
50394;BME280;36308;46.312;25.288;2023-03-14T09:49:30;95540.28;;;17.72;32.22
50394;BME280;36308;46.312;25.288;2023-03-14T09:51:59;95535.13;;;17.93;32.26
50394;BME280;36308;46.312;25.288;2023-03-14T09:57:12;95523.66;;;18.31;31.58
50394;BME280;36308;46.312;25.288;2023-03-14T09:59:39;95507.31;;;18.48;31.31
50394;BME280;36308;46.312;25.288;2023-03-14T10:02:25;95508.72;;;18.63;30.40
50394;BME280;36308;46.312;25.288;2023-03-14T10:04:52;95502.53;;;18.80;30.17
50394;BME280;36308;46.312;25.288;2023-03-14T10:07:23;95499.28;;;18.95;30.25
50394;BME280;36308;46.312;25.288;2023-03-14T10:09:51;95498.56;;;19.16;29.70
50394;BME280;36308;46.312;25.288;2023-03-14T10:12:18;95501.53;;;19.32;28.19
50394;BME280;36308;46.312;25.288;2023-03-14T10:14:54;95492.69;;;19.44;27.98
50394;BME280;36308;46.312;25.288;2023-03-14T10:17:20;95487.81;;;19.58;27.44
50394;BME280;36308;46.312;25.288;2023-03-14T10:19:57;95485.22;;;19.70;27.27
50394;BME280;36308;46.312;25.288;2023-03-14T10:22:26;95478.44;;;19.76;26.72
50394;BME280;36308;46.312;25.288;2023-03-14T10:24:55;95474.06;;;19.84;26.14
50394;BME280;36308;46.312;25.288;2023-03-14T10:27:34;95463.28;;;19.88;25.45
50394;BME280;36308;46.312;25.288;2023-03-14T10:30:06;95465.16;;;19.96;25.77
50394;BME280;36308;46.312;25.288;2023-03-14T10:32:36;95463.19;;;20.05;25.56
50394;BME280;36308;46.312;25.288;2023-03-14T10:37:57;95467.63;;;20.31;25.02
50394;BME280;36308;46.312;25.288;2023-03-14T10:40:27;95472.22;;;20.39;25.00
50394;BME280;36308;46.312;25.288;2023-03-14T10:42:54;95458.38;;;20.44;24.42
50394;BME280;36308;46.312;25.288;2023-03-14T10:45:38;95454.78;;;20.52;24.29
50394;BME280;36308;46.312;25.288;2023-03-14T10:50:48;95437.19;;;20.62;24.39
50394;BME280;36308;46.312;25.288;2023-03-14T10:53:17;95434.34;;;20.71;24.08
50394;BME280;36308;46.312;25.288;2023-03-14T10:55:44;95433.94;;;20.81;24.47
50394;BME280;36308;46.312;25.288;2023-03-14T10:58:26;95421.78;;;20.91;24.51
50394;BME280;36308;46.312;25.288;2023-03-14T11:03:38;95407.09;;;20.95;23.93
50394;BME280;36308;46.312;25.288;2023-03-14T11:06:32;95408.69;;;20.96;23.87
50394;BME280;36308;46.312;25.288;2023-03-14T11:11:33;95397.31;;;20.94;24.45
50394;BME280;36308;46.312;25.288;2023-03-14T11:19:56;95377.16;;;20.99;25.13
50394;BME280;36308;46.312;25.288;2023-03-14T11:22:50;95372.94;;;21.02;24.77
50394;BME280;36308;46.312;25.288;2023-03-14T11:30:50;95367.28;;;21.07;25.08
50394;BME280;36308;46.312;25.288;2023-03-14T11:33:28;95359.97;;;21.11;25.03
50394;BME280;36308;46.312;25.288;2023-03-14T11:38:37;95350.63;;;21.36;25.47
50394;BME280;36308;46.312;25.288;2023-03-14T11:41:04;95347.19;;;21.52;25.39
50394;BME280;36308;46.312;25.288;2023-03-14T11:43:41;95342.06;;;21.63;24.71
50394;BME280;36308;46.312;25.288;2023-03-14T11:46:17;95330.50;;;21.82;25.21
50394;BME280;36308;46.312;25.288;2023-03-14T11:48:57;95336.38;;;21.96;24.96
50394;BME280;36308;46.312;25.288;2023-03-14T11:51:30;95316.72;;;22.06;24.60
50394;BME280;36308;46.312;25.288;2023-03-14T11:57:02;95299.09;;;22.19;23.76
50394;BME280;36308;46.312;25.288;2023-03-14T12:02:12;95289.97;;;22.28;23.29
50394;BME280;36308;46.312;25.288;2023-03-14T12:05:10;95284.03;;;22.26;22.91
50394;BME280;36308;46.312;25.288;2023-03-14T12:10:07;95275.63;;;22.18;22.84
50394;BME280;36308;46.312;25.288;2023-03-14T12:12:33;95270.94;;;22.19;22.63
50394;BME280;36308;46.312;25.288;2023-03-14T12:15:01;95266.25;;;22.19;23.51
50394;BME280;36308;46.312;25.288;2023-03-14T12:17:38;95262.38;;;22.20;23.21
50394;BME280;36308;46.312;25.288;2023-03-14T12:20:19;95251.31;;;22.17;22.56
50394;BME280;36308;46.312;25.288;2023-03-14T12:25:32;95242.56;;;22.11;22.12
50394;BME280;36308;46.312;25.288;2023-03-14T12:28:16;95232.13;;;22.01;21.95
50394;BME280;36308;46.312;25.288;2023-03-14T12:30:43;95235.81;;;21.93;22.41
50394;BME280;36308;46.312;25.288;2023-03-14T12:38:03;95226.78;;;21.76;22.90
50394;BME280;36308;46.312;25.288;2023-03-14T12:40:33;95224.31;;;21.71;22.64
50394;BME280;36308;46.312;25.288;2023-03-14T12:43:04;95222.47;;;21.75;23.50
50394;BME280;36308;46.312;25.288;2023-03-14T12:45:39;95221.28;;;21.76;23.06
50394;BME280;36308;46.312;25.288;2023-03-14T12:48:21;95218.13;;;21.74;22.82
50394;BME280;36308;46.312;25.288;2023-03-14T12:51:04;95216.53;;;21.73;22.60
50394;BME280;36308;46.312;25.288;2023-03-14T12:59:33;95206.09;;;21.63;21.90
50394;BME280;36308;46.312;25.288;2023-03-14T13:04:33;95203.53;;;21.54;21.67
50394;BME280;36308;46.312;25.288;2023-03-14T13:07:01;95189.06;;;21.42;21.95
50394;BME280;36308;46.312;25.288;2023-03-14T13:11:54;95200.00;;;21.42;22.04
50394;BME280;36308;46.312;25.288;2023-03-14T13:14:20;95188.19;;;21.37;21.99
50394;BME280;36308;46.312;25.288;2023-03-14T13:16:49;95188.50;;;21.36;22.12
50394;BME280;36308;46.312;25.288;2023-03-14T13:19:27;95186.47;;;21.33;21.98
50394;BME280;36308;46.312;25.288;2023-03-14T13:22:06;95177.03;;;21.30;22.00
50394;BME280;36308;46.312;25.288;2023-03-14T13:24:39;95178.53;;;21.28;22.34
50394;BME280;36308;46.312;25.288;2023-03-14T13:27:04;95156.13;;;21.10;22.61
50394;BME280;36308;46.312;25.288;2023-03-14T13:29:41;95176.59;;;21.16;22.42
50394;BME280;36308;46.312;25.288;2023-03-14T13:32:27;95172.41;;;21.06;22.62
50394;BME280;36308;46.312;25.288;2023-03-14T13:34:57;95171.88;;;21.01;22.71
50394;BME280;36308;46.312;25.288;2023-03-14T13:37:25;95164.63;;;20.92;22.59
50394;BME280;36308;46.312;25.288;2023-03-14T13:39:52;95164.28;;;20.94;22.50
50394;BME280;36308;46.312;25.288;2023-03-14T13:42:21;95150.25;;;20.95;23.34
50394;BME280;36308;46.312;25.288;2023-03-14T13:44:47;95130.66;;;20.93;23.02
50394;BME280;36308;46.312;25.288;2023-03-14T13:47:18;95134.97;;;21.07;23.28
50394;BME280;36308;46.312;25.288;2023-03-14T13:49:45;95132.88;;;21.16;23.16
50394;BME280;36308;46.312;25.288;2023-03-14T13:52:31;95131.75;;;21.17;22.42
50394;BME280;36308;46.312;25.288;2023-03-14T13:54:59;95120.91;;;21.20;21.99
50394;BME280;36308;46.312;25.288;2023-03-14T13:57:26;95113.41;;;21.17;21.62
50394;BME280;36308;46.312;25.288;2023-03-14T14:00:00;95121.50;;;21.14;21.41